Terminal Aerodrome Forecast
Issued by NWS Boston, MA

Home | Current Version | Previous Version | Text Only | Print | Product List | Glossary On
Versions: 1 2 3 4 5 6 7 8 9 10 11 12 13 14 15 16 17 18 19 20 21 22 23 24 25 26 27 28 29 30 31 32 33 34 35 36 37 38 39 40 41 42 43 44 45 46 47 48 49 50
000
FTUS41 KBOX 170541 AAA
TAFORH
TAF AMD
KORH 170541Z 1706/1806 23010KT P6SM SCT250
     FM171300 25007KT 5SM BR BKN090
     FM171800 25007KT 2SM +SHRA BR BKN070
     FM180000 27004KT 5SM -SHRA BR OVC050
     FM180200 28003KT 6SM -SHRA OVC030
     FM180500 00000KT 6SM -SHRA OVC015=

USA.gov is the U.S. government's official web portal to all federal, state and local government web resources and services.